createdAt,value
2023-04-11T00:00:44.154Z,58.54
2023-04-11T00:04:45.670Z,57.52
2023-04-11T00:08:47.144Z,58.29
2023-04-11T00:12:49.909Z,58.37
2023-04-11T00:16:51.314Z,58.52
2023-04-11T00:20:52.740Z,57.28
2023-04-11T00:24:54.364Z,57.73
2023-04-11T00:28:57.150Z,56.58
2023-04-11T00:32:58.571Z,58.47
2023-04-11T00:37:00.111Z,58.00
2023-04-11T00:41:01.612Z,56.92
2023-04-11T00:45:05.334Z,56.62
2023-04-11T00:49:06.768Z,57.58
2023-04-11T00:53:10.566Z,56.84
2023-04-11T00:57:12.113Z,56.70
2023-04-11T01:01:14.909Z,56.63
2023-04-11T01:05:16.679Z,56.84
2023-04-11T01:09:19.858Z,57.30
2023-04-11T01:13:21.589Z,56.64
2023-04-11T01:17:24.788Z,57.55
2023-04-11T01:21:27.178Z,55.62
2023-04-11T01:25:30.100Z,56.85
2023-04-11T01:29:31.756Z,56.14
2023-04-11T01:33:33.162Z,57.29
2023-04-11T01:37:34.877Z,56.18
2023-04-11T01:41:38.716Z,56.30
2023-04-11T01:45:40.880Z,55.93
2023-04-11T01:49:42.733Z,54.99
2023-04-11T01:53:44.136Z,54.88
2023-04-11T01:57:46.853Z,55.89
2023-04-11T02:01:48.362Z,54.06
2023-04-11T02:05:49.812Z,54.86
2023-04-11T02:09:51.186Z,56.43
2023-04-11T02:13:53.916Z,57.13
2023-04-11T02:17:55.488Z,55.99
2023-04-11T02:21:56.935Z,57.63
2023-04-11T02:25:58.333Z,57.01
2023-04-11T02:30:01.044Z,56.83
2023-04-11T02:34:02.424Z,56.65
2023-04-11T02:38:03.853Z,56.24
2023-04-11T02:42:05.343Z,56.82
2023-04-11T02:46:12.726Z,56.88
2023-04-11T02:50:14.662Z,56.18
2023-04-11T02:54:16.059Z,55.84
2023-04-11T02:58:17.458Z,56.96
2023-04-11T03:02:20.316Z,57.35
2023-04-11T03:06:21.816Z,56.06
2023-04-11T03:10:25.571Z,56.12
2023-04-11T03:14:26.974Z,56.79
2023-04-11T03:18:29.700Z,57.03
2023-04-11T03:22:31.092Z,55.97
2023-04-11T03:26:32.498Z,56.39
2023-04-11T03:30:33.938Z,56.26
2023-04-11T03:34:36.647Z,57.53
2023-04-11T03:38:38.166Z,57.46
2023-04-11T03:42:39.600Z,57.20
2023-04-11T03:46:41.064Z,56.37
2023-04-11T03:50:44.102Z,56.84
2023-04-11T03:54:47.598Z,56.45
2023-04-11T03:58:49.261Z,56.64
2023-04-11T04:02:50.866Z,58.21
2023-04-11T04:06:53.784Z,59.45
2023-04-11T04:10:55.167Z,61.09
2023-04-11T04:14:56.567Z,62.06
2023-04-11T04:18:58.078Z,60.84
2023-04-11T04:23:00.815Z,60.23
2023-04-11T04:27:02.235Z,60.95
2023-04-11T04:31:03.906Z,61.55
2023-04-11T04:35:06.323Z,63.66
2023-04-11T04:39:09.035Z,72.57
2023-04-11T04:43:11.581Z,74.25
2023-04-11T04:47:13.037Z,79.64
2023-04-11T04:51:14.456Z,84.00
2023-04-11T04:55:17.330Z,85.87
2023-04-11T04:59:18.839Z,86.41
2023-04-11T05:03:20.554Z,88.81
2023-04-11T05:07:22.326Z,90.12
2023-04-11T05:11:25.217Z,89.87
2023-04-11T05:15:26.613Z,91.60
2023-04-11T05:19:28.181Z,89.69
2023-04-11T05:23:29.568Z,86.84
2023-04-11T05:27:32.422Z,85.51
2023-04-11T05:31:33.884Z,85.70
2023-04-11T05:35:35.377Z,86.21
2023-04-11T05:39:36.972Z,87.28
2023-04-11T05:43:39.698Z,85.12
2023-04-11T05:47:41.262Z,84.57
2023-04-11T05:51:42.685Z,85.00
2023-04-11T05:55:44.337Z,85.61
2023-04-11T05:59:47.353Z,86.36
2023-04-11T06:03:48.859Z,85.79
2023-04-11T06:07:50.916Z,86.86
2023-04-11T06:11:52.499Z,86.47
2023-04-11T06:15:55.543Z,87.32
2023-04-11T06:19:56.971Z,88.24
2023-04-11T06:24:04.231Z,88.79
2023-04-11T06:28:05.629Z,88.88
2023-04-11T06:32:08.380Z,91.19
2023-04-11T06:36:10.835Z,90.59
2023-04-11T06:40:12.891Z,89.47
2023-04-11T06:44:14.806Z,90.49
2023-04-11T06:48:17.615Z,91.33
2023-04-11T06:52:19.001Z,91.95
2023-04-11T06:56:20.496Z,94.87
2023-04-11T07:00:22.030Z,97.93
2023-04-11T07:04:24.921Z,100.00
2023-04-11T07:08:26.440Z,100.00
2023-04-11T07:12:27.820Z,100.00
2023-04-11T07:16:29.284Z,100.00
2023-04-11T07:20:33.224Z,100.00
2023-04-11T07:24:34.676Z,100.00
2023-04-11T07:28:36.255Z,100.00
2023-04-11T07:32:37.713Z,100.00
2023-04-11T07:36:40.548Z,100.00
2023-04-11T07:40:42.009Z,100.00
2023-04-11T07:44:43.479Z,100.00
2023-04-11T07:48:44.920Z,100.00
2023-04-11T07:52:47.801Z,100.00
2023-04-11T07:56:49.240Z,100.00
2023-04-11T08:00:50.664Z,100.00
2023-04-11T08:04:52.185Z,100.00
2023-04-11T08:08:55.024Z,100.00
2023-04-11T08:12:56.781Z,100.00
2023-04-11T08:16:59.122Z,100.00
2023-04-11T08:21:00.891Z,97.58
2023-04-11T08:25:04.309Z,96.68
2023-04-11T08:29:05.785Z,98.35
2023-04-11T08:33:07.271Z,96.21
2023-04-11T08:37:08.713Z,96.12
2023-04-11T08:41:11.678Z,97.49
2023-04-11T08:45:13.409Z,95.85
2023-04-11T08:49:14.924Z,96.25
2023-04-11T08:53:18.955Z,95.96
2023-04-11T08:57:26.861Z,94.06
2023-04-11T09:01:30.272Z,91.83
2023-04-11T09:05:32.995Z,93.48
2023-04-11T09:09:34.526Z,94.70
2023-04-11T09:13:37.287Z,93.57
2023-04-11T09:17:41.138Z,94.06
2023-04-11T09:21:48.948Z,93.96
2023-04-11T09:25:51.851Z,93.49
2023-04-11T09:29:54.641Z,92.25
2023-04-11T09:33:58.846Z,91.52
2023-04-11T09:38:00.493Z,90.49
2023-04-11T09:42:03.100Z,87.31
2023-04-11T09:46:10.286Z,87.65
2023-04-11T09:50:12.627Z,84.98
2023-04-11T09:54:15.855Z,84.53
2023-04-11T09:58:18.084Z,83.48
2023-04-11T10:02:20.984Z,81.80
2023-04-11T10:06:30.566Z,80.44
2023-04-11T10:10:32.629Z,77.91
2023-04-11T10:14:44.836Z,77.69
2023-04-11T10:19:23.354Z,77.31
2023-04-11T10:23:24.865Z,76.51
2023-04-11T10:27:47.957Z,74.04
2023-04-11T10:32:10.465Z,74.28
2023-04-11T10:36:13.343Z,71.82
2023-04-11T10:40:17.003Z,71.73
2023-04-11T10:44:19.974Z,68.22
2023-04-11T10:48:21.425Z,63.65
2023-04-11T10:52:24.235Z,66.98
2023-04-11T10:56:54.105Z,91.07
2023-04-11T11:01:32.154Z,91.33
2023-04-11T11:05:40.026Z,96.62
2023-04-11T11:09:49.037Z,96.99
2023-04-11T11:13:52.004Z,95.37
2023-04-11T11:17:53.593Z,94.19
2023-04-11T11:21:55.170Z,94.20
2023-04-11T11:25:59.184Z,91.59
2023-04-11T11:30:10.320Z,92.71
2023-04-11T11:38:16.849Z,94.21
2023-04-11T11:42:19.904Z,96.37
2023-04-11T11:46:21.449Z,98.75
2023-04-11T11:50:27.793Z,100.00
2023-04-11T11:54:29.212Z,99.83
2023-04-11T11:58:42.640Z,98.45
2023-04-11T12:02:55.229Z,99.01
2023-04-11T12:06:56.761Z,99.43
2023-04-11T12:10:58.194Z,95.43
2023-04-11T12:15:01.766Z,93.77
2023-04-11T12:19:04.226Z,92.61
2023-04-11T12:23:05.655Z,88.30
2023-04-11T12:27:08.041Z,85.98
2023-04-11T12:31:11.798Z,87.36
2023-04-11T12:35:14.453Z,88.62
2023-04-11T12:39:16.081Z,82.81
2023-04-11T12:43:17.615Z,84.13
2023-04-11T12:47:20.618Z,74.23
2023-04-11T12:51:22.320Z,74.77
2023-04-11T12:55:23.907Z,72.57
2023-04-11T12:59:25.636Z,72.05
2023-04-11T13:03:28.630Z,76.04
2023-04-11T13:07:30.192Z,78.02
2023-04-11T13:11:31.698Z,77.77
2023-04-11T13:15:33.193Z,74.85
2023-04-11T13:19:35.985Z,75.43
2023-04-11T13:23:37.402Z,76.18
2023-04-11T13:27:39.013Z,74.45
2023-04-11T13:31:40.482Z,70.79
2023-04-11T13:35:43.272Z,70.52
2023-04-11T13:39:44.709Z,70.05
2023-04-11T13:43:46.153Z,66.86
2023-04-11T13:47:48.934Z,71.01
2023-04-11T13:51:51.700Z,73.37
2023-04-11T13:55:53.101Z,75.50
2023-04-11T13:59:54.488Z,73.66
2023-04-11T14:03:56.145Z,75.52
2023-04-11T14:07:59.121Z,77.88
2023-04-11T14:12:00.507Z,76.28
2023-04-11T14:16:08.706Z,69.58
2023-04-11T14:20:14.704Z,66.73
2023-04-11T14:24:17.646Z,66.18
2023-04-11T14:28:19.052Z,59.85
2023-04-11T14:32:20.460Z,54.95
2023-04-11T14:36:21.879Z,55.30
2023-04-11T14:40:24.704Z,58.82
2023-04-11T14:44:27.054Z,57.08
2023-04-11T14:48:29.411Z,58.83
2023-04-11T14:52:30.856Z,61.06
2023-04-11T14:56:33.565Z,63.51
2023-04-11T15:00:34.953Z,65.53
2023-04-11T15:04:36.445Z,65.42
2023-04-11T15:08:38.109Z,66.71
2023-04-11T15:12:40.959Z,66.73
2023-04-11T15:16:42.369Z,66.73
2023-04-11T15:20:43.764Z,59.78
2023-04-11T15:24:45.169Z,60.25
2023-04-11T15:28:47.978Z,62.00
2023-04-11T15:32:49.431Z,62.82
2023-04-11T15:36:50.845Z,63.12
2023-04-11T15:40:53.369Z,63.60
2023-04-11T15:44:56.116Z,61.76
2023-04-11T15:48:57.509Z,60.50
2023-04-11T15:52:59.271Z,61.12
2023-04-11T15:57:00.755Z,60.87
2023-04-11T16:01:03.616Z,61.30
2023-04-11T16:05:05.854Z,61.31
2023-04-11T16:09:07.404Z,62.46
2023-04-11T16:13:09.007Z,62.57
2023-04-11T16:17:11.814Z,63.73
2023-04-11T16:21:14.352Z,62.85
2023-04-11T16:25:15.811Z,61.90
2023-04-11T16:29:17.227Z,65.16
2023-04-11T16:33:20.069Z,63.68
2023-04-11T16:37:22.060Z,64.26
2023-04-11T16:41:23.549Z,66.11
2023-04-11T16:45:24.969Z,63.23
2023-04-11T16:49:27.767Z,60.44
2023-04-11T16:53:29.184Z,59.73
2023-04-11T16:57:30.658Z,60.23
2023-04-11T17:01:32.127Z,59.82
2023-04-11T17:05:34.968Z,59.50
2023-04-11T17:09:36.368Z,58.29
2023-04-11T17:13:38.158Z,57.92
2023-04-11T17:17:39.628Z,59.22
2023-04-11T17:21:42.443Z,59.68
2023-04-11T17:25:43.955Z,60.51
2023-04-11T17:29:45.404Z,60.25
2023-04-11T17:33:46.813Z,61.13
2023-04-11T17:37:50.212Z,62.33
2023-04-11T17:41:51.627Z,63.41
2023-04-11T17:45:54.251Z,66.98
2023-04-11T17:49:55.677Z,65.61
2023-04-11T17:53:58.633Z,70.34
2023-04-11T17:58:00.327Z,69.00
2023-04-11T18:02:01.828Z,68.44
2023-04-11T18:06:03.501Z,69.58
2023-04-11T18:10:07.648Z,70.30
2023-04-11T18:14:09.162Z,70.86
2023-04-11T18:18:10.787Z,69.52
2023-04-11T18:22:12.243Z,72.16
2023-04-11T18:26:14.991Z,67.19
2023-04-11T18:30:16.836Z,67.40
2023-04-11T18:34:18.284Z,67.07
2023-04-11T18:38:19.926Z,67.00
2023-04-11T18:42:22.767Z,66.90
2023-04-11T18:46:24.326Z,64.99
2023-04-11T18:50:25.745Z,69.45
2023-04-11T18:54:27.159Z,76.93
2023-04-11T18:58:32.062Z,81.70
2023-04-11T19:02:34.487Z,85.96
2023-04-11T19:06:35.948Z,87.32
2023-04-11T19:10:37.509Z,89.55
2023-04-11T19:14:40.252Z,88.46
2023-04-11T19:18:41.768Z,87.63
2023-04-11T19:22:43.223Z,87.11
2023-04-11T19:26:44.761Z,89.25
2023-04-11T19:30:48.265Z,88.31
2023-04-11T19:34:49.683Z,88.71
2023-04-11T19:38:51.093Z,89.34
2023-04-11T19:42:54.788Z,87.81
2023-04-11T19:46:57.559Z,89.06
2023-04-11T19:51:00.602Z,90.91
2023-04-11T19:55:03.368Z,90.58
2023-04-11T19:59:04.770Z,89.29
2023-04-11T20:03:07.847Z,88.26
2023-04-11T20:07:09.550Z,92.28
2023-04-11T20:11:14.015Z,94.18
2023-04-11T20:15:15.422Z,95.63
2023-04-11T20:19:18.178Z,95.86
2023-04-11T20:23:19.558Z,94.72
2023-04-11T20:27:21.032Z,96.22
2023-04-11T20:31:22.508Z,97.35
2023-04-11T20:35:25.712Z,97.97
2023-04-11T20:39:27.321Z,98.78
2023-04-11T20:43:28.727Z,99.18
2023-04-11T20:47:30.174Z,99.48
2023-04-11T20:51:32.957Z,99.61
2023-04-11T20:55:34.356Z,99.59
2023-04-11T20:59:37.549Z,98.67
2023-04-11T21:03:39.045Z,99.36
2023-04-11T21:07:41.890Z,99.30
2023-04-11T21:11:43.315Z,98.47
2023-04-11T21:15:44.763Z,98.04
2023-04-11T21:19:46.252Z,98.14
2023-04-11T21:23:49.025Z,98.99
2023-04-11T21:27:50.433Z,98.88
2023-04-11T21:31:51.828Z,98.29
2023-04-11T21:35:53.608Z,98.17
2023-04-11T21:39:56.420Z,98.31
2023-04-11T21:43:58.049Z,99.09
2023-04-11T21:47:59.731Z,98.72
2023-04-11T21:52:01.177Z,98.91
2023-04-11T21:56:06.198Z,99.11
2023-04-11T22:00:09.031Z,100.00
2023-04-11T22:04:10.714Z,100.00
2023-04-11T22:08:13.927Z,100.00
2023-04-11T22:12:16.953Z,100.00
2023-04-11T22:16:18.545Z,100.00
2023-04-11T22:20:20.114Z,100.00
2023-04-11T22:24:21.592Z,100.00
2023-04-11T22:28:24.503Z,100.00
2023-04-11T22:32:25.945Z,100.00
2023-04-11T22:36:27.386Z,100.00
2023-04-11T22:40:28.767Z,100.00
2023-04-11T22:44:31.514Z,100.00
2023-04-11T22:48:32.916Z,100.00
2023-04-11T22:52:34.565Z,100.00
2023-04-11T22:56:35.987Z,100.00
2023-04-11T23:00:38.724Z,100.00
2023-04-11T23:04:40.183Z,100.00
2023-04-11T23:08:41.588Z,100.00
2023-04-11T23:12:42.983Z,100.00
2023-04-11T23:16:47.041Z,100.00
2023-04-11T23:20:48.477Z,100.00
2023-04-11T23:24:49.860Z,100.00
2023-04-11T23:28:51.246Z,100.00
2023-04-11T23:32:54.164Z,100.00
2023-04-11T23:36:55.581Z,100.00
2023-04-11T23:40:57.071Z,100.00
2023-04-11T23:45:01.014Z,100.00
2023-04-11T23:49:03.812Z,100.00
2023-04-11T23:53:05.251Z,100.00
2023-04-11T23:57:06.650Z,100.00
